createdAt,value
2023-02-03T00:03:19.438Z,11.77
2023-02-03T00:07:21.811Z,13.43
2023-02-03T00:11:24.224Z,12.52
2023-02-03T00:15:27.092Z,12.43
2023-02-03T00:19:29.262Z,14.23
2023-02-03T00:23:32.112Z,13.23
2023-02-03T00:27:34.183Z,14.88
2023-02-03T00:31:36.513Z,17.02
2023-02-03T00:35:40.238Z,15.57
2023-02-03T00:39:42.402Z,13.75
2023-02-03T00:43:44.948Z,11.38
2023-02-03T00:47:47.053Z,11.80
2023-02-03T00:51:49.287Z,12.10
2023-02-03T00:55:52.293Z,14.10
2023-02-03T00:59:54.959Z,15.93
2023-02-03T01:03:57.049Z,10.27
2023-02-03T01:08:00.738Z,7.22
2023-02-03T01:12:03.999Z,6.63
2023-02-03T01:16:11.648Z,6.57
2023-02-03T01:20:13.953Z,6.68
2023-02-03T01:24:15.955Z,6.28
2023-02-03T01:28:17.769Z,5.97
2023-02-03T01:32:20.702Z,5.00
2023-02-03T01:36:24.967Z,6.40
2023-02-03T01:40:27.342Z,7.22
2023-02-03T01:44:40.072Z,6.47
2023-02-03T01:48:42.987Z,5.38
2023-02-03T01:52:49.278Z,5.53
2023-02-03T01:56:56.593Z,4.97
2023-02-03T02:00:59.024Z,4.90
2023-02-03T02:05:14.515Z,4.68
2023-02-03T02:09:17.625Z,4.60
2023-02-03T02:13:20.648Z,4.28
2023-02-03T02:17:34.406Z,4.20
2023-02-03T02:21:55.834Z,4.05
2023-02-03T02:26:18.959Z,4.40
2023-02-03T02:30:36.639Z,4.07
2023-02-03T02:34:49.389Z,5.07
2023-02-03T02:39:03.529Z,4.50
2023-02-03T02:43:53.528Z,4.32
2023-02-03T02:48:18.178Z,4.32
2023-02-03T02:52:22.418Z,4.18
2023-02-03T02:56:27.529Z,3.88
2023-02-03T03:00:34.662Z,4.18
2023-02-03T03:04:37.136Z,3.38
2023-02-03T03:08:48.980Z,4.38
2023-02-03T03:12:56.581Z,3.42
2023-02-03T03:17:12.267Z,3.25
2023-02-03T03:21:19.713Z,3.53
2023-02-03T03:25:28.214Z,3.30
2023-02-03T03:29:50.433Z,5.40
2023-02-03T03:33:52.619Z,5.45
2023-02-03T03:38:00.029Z,3.88
2023-02-03T03:42:12.537Z,4.10
2023-02-03T03:46:20.615Z,7.30
2023-02-03T03:50:28.055Z,4.70
2023-02-03T03:54:32.264Z,8.73
2023-02-03T03:58:35.371Z,7.65
2023-02-03T04:02:39.817Z,13.32
2023-02-03T04:06:42.305Z,13.65
2023-02-03T04:10:44.687Z,6.93
2023-02-03T04:14:46.670Z,8.93
2023-02-03T04:18:48.933Z,9.13
2023-02-03T04:22:51.265Z,7.50
2023-02-03T04:26:53.266Z,8.48
2023-02-03T04:30:55.208Z,11.45
2023-02-03T04:34:58.421Z,12.60
2023-02-03T04:39:00.401Z,8.93
2023-02-03T04:43:07.747Z,15.23
2023-02-03T04:47:09.739Z,11.75
2023-02-03T04:51:11.785Z,13.43
2023-02-03T04:55:13.797Z,14.90
2023-02-03T04:59:15.881Z,13.10
2023-02-03T05:03:17.910Z,13.43
2023-02-03T05:07:20.007Z,11.80
2023-02-03T05:11:22.592Z,11.00
2023-02-03T05:15:24.607Z,9.65
2023-02-03T05:19:26.740Z,12.00
2023-02-03T05:23:28.668Z,13.55
2023-02-03T05:27:31.033Z,14.05
2023-02-03T05:31:33.738Z,11.30
2023-02-03T05:35:36.180Z,12.05
2023-02-03T05:39:38.150Z,11.25
2023-02-03T05:43:40.111Z,11.57
2023-02-03T05:47:42.137Z,12.40
2023-02-03T05:51:44.032Z,12.75
2023-02-03T05:55:45.648Z,13.57
2023-02-03T05:59:47.663Z,13.05
2023-02-03T06:03:50.100Z,14.45
2023-02-03T06:07:52.499Z,14.32
2023-02-03T06:11:54.735Z,13.93
2023-02-03T06:15:57.511Z,14.10
2023-02-03T06:19:59.553Z,15.77
2023-02-03T06:24:01.641Z,15.73
2023-02-03T06:28:04.115Z,16.88
2023-02-03T06:32:07.174Z,15.77
2023-02-03T06:36:09.974Z,14.93
2023-02-03T06:40:12.721Z,15.25
2023-02-03T06:44:14.720Z,14.45
2023-02-03T06:48:16.720Z,15.30
2023-02-03T06:52:19.188Z,13.48
2023-02-03T06:56:21.375Z,14.63
2023-02-03T07:00:24.389Z,12.05
2023-02-03T07:04:30.079Z,11.80
2023-02-03T07:08:32.106Z,12.50
2023-02-03T07:12:34.199Z,13.68
2023-02-03T07:16:37.503Z,14.55
2023-02-03T07:20:39.519Z,16.25
2023-02-03T07:24:41.577Z,15.20
2023-02-03T07:28:43.584Z,15.15
2023-02-03T07:32:49.898Z,14.40
2023-02-03T07:36:52.224Z,16.63
2023-02-03T07:40:54.310Z,14.85
2023-02-03T07:44:56.199Z,14.60
2023-02-03T07:48:58.219Z,14.90
2023-02-03T07:53:00.827Z,13.45
2023-02-03T07:57:02.912Z,13.02
2023-02-03T08:01:14.015Z,27.73
2023-02-03T08:05:17.290Z,11.00
2023-02-03T08:09:19.332Z,18.55
2023-02-03T08:13:21.329Z,8.75
2023-02-03T08:17:23.438Z,11.27
2023-02-03T08:21:25.475Z,8.70
2023-02-03T08:25:27.333Z,9.90
2023-02-03T08:29:29.257Z,9.05
2023-02-03T08:33:31.212Z,8.35
2023-02-03T08:37:34.351Z,9.95
2023-02-03T08:41:36.521Z,13.68
2023-02-03T08:45:40.425Z,10.50
2023-02-03T08:49:42.695Z,8.63
2023-02-03T08:53:45.437Z,9.23
2023-02-03T08:57:47.958Z,8.48
2023-02-03T09:01:49.980Z,13.15
2023-02-03T09:05:52.123Z,9.52
2023-02-03T09:09:54.169Z,8.57
2023-02-03T09:13:57.876Z,7.28
2023-02-03T09:17:59.819Z,7.22
2023-02-03T09:22:01.724Z,6.45
2023-02-03T09:26:05.705Z,6.28
2023-02-03T09:30:08.126Z,5.50
2023-02-03T09:34:10.153Z,5.95
2023-02-03T09:38:12.125Z,4.97
2023-02-03T09:42:25.781Z,5.32
2023-02-03T09:46:32.876Z,6.80
2023-02-03T09:50:38.321Z,5.05
2023-02-03T09:54:53.038Z,14.07
2023-02-03T09:58:55.467Z,5.13
2023-02-03T10:03:29.498Z,5.05
2023-02-03T10:07:56.073Z,6.65
2023-02-03T10:12:49.399Z,15.55
2023-02-03T10:17:09.769Z,4.70
2023-02-03T10:21:16.952Z,3.53
2023-02-03T10:25:37.390Z,3.38
2023-02-03T10:29:45.621Z,2.05
2023-02-03T10:34:13.319Z,2.45
2023-02-03T10:38:25.147Z,7.53
2023-02-03T10:42:50.288Z,3.03
2023-02-03T10:46:52.249Z,35.63
2023-02-03T10:50:55.770Z,2.80
2023-02-03T10:55:02.407Z,2.38
2023-02-03T10:59:06.567Z,9.27
2023-02-03T11:03:25.953Z,3.92
2023-02-03T11:07:30.624Z,5.13
2023-02-03T11:11:34.282Z,3.60
2023-02-03T11:15:36.450Z,4.57
2023-02-03T11:19:39.409Z,4.18
2023-02-03T11:24:20.599Z,2.88
2023-02-03T11:28:28.379Z,3.95
2023-02-03T11:32:36.834Z,2.70
2023-02-03T11:36:38.822Z,3.70
2023-02-03T11:40:41.452Z,13.88
2023-02-03T11:44:43.473Z,22.50
2023-02-03T11:49:02.482Z,5.47
2023-02-03T11:53:32.218Z,2.47
2023-02-03T11:57:49.398Z,2.63
2023-02-03T12:02:10.235Z,2.25
2023-02-03T12:06:12.175Z,2.53
2023-02-03T12:11:00.306Z,2.95
2023-02-03T12:15:21.875Z,2.80
2023-02-03T12:19:48.269Z,2.60
2023-02-03T12:24:04.538Z,3.20
2023-02-03T12:28:33.189Z,2.90
2023-02-03T12:32:42.548Z,3.97
2023-02-03T12:36:53.588Z,3.60
2023-02-03T12:41:00.145Z,3.08
2023-02-03T12:45:11.085Z,3.22
2023-02-03T12:49:34.096Z,3.55
2023-02-03T12:53:42.300Z,3.47
2023-02-03T12:57:58.755Z,4.55
2023-02-03T13:02:13.849Z,3.85
2023-02-03T13:06:30.921Z,4.80
2023-02-03T13:10:48.757Z,4.82
2023-02-03T13:15:18.967Z,4.00
2023-02-03T13:19:25.680Z,4.10
2023-02-03T13:23:28.023Z,4.00
2023-02-03T13:27:42.902Z,4.65
2023-02-03T13:32:02.192Z,4.93
2023-02-03T13:36:22.515Z,5.00
2023-02-03T13:40:32.031Z,5.10
2023-02-03T13:44:35.303Z,6.95
2023-02-03T13:48:37.932Z,5.75
2023-02-03T13:52:57.444Z,6.07
2023-02-03T13:57:02.560Z,5.85
2023-02-03T14:01:40.649Z,5.60
2023-02-03T14:05:49.416Z,6.25
2023-02-03T14:10:14.108Z,5.20
2023-02-03T14:14:16.049Z,6.57
2023-02-03T14:18:32.873Z,6.82
2023-02-03T14:22:40.037Z,8.40
2023-02-03T14:26:54.086Z,9.48
2023-02-03T14:31:06.112Z,9.20
2023-02-03T14:35:17.815Z,10.55
2023-02-03T14:39:22.895Z,10.15
2023-02-03T14:44:03.208Z,11.32
2023-02-03T14:48:23.159Z,14.60
2023-02-03T14:52:36.372Z,15.77
2023-02-03T14:57:06.101Z,15.68
2023-02-03T15:01:23.078Z,18.10
2023-02-03T15:05:27.613Z,18.88
2023-02-03T15:09:51.709Z,19.38
2023-02-03T15:13:55.577Z,16.00
2023-02-03T15:18:00.296Z,16.30
2023-02-03T15:22:02.629Z,14.57
2023-02-03T15:26:19.834Z,14.00
2023-02-03T15:30:27.414Z,11.38
2023-02-03T15:34:47.991Z,14.57
2023-02-03T15:39:02.763Z,11.82
2023-02-03T15:43:12.723Z,12.20
2023-02-03T15:47:30.824Z,11.20
2023-02-03T15:51:43.884Z,14.93
2023-02-03T15:55:53.161Z,18.58
2023-02-03T15:59:59.999Z,20.27
2023-02-03T16:04:02.152Z,16.00
2023-02-03T16:08:37.309Z,15.68
2023-02-03T16:12:41.503Z,14.45
2023-02-03T16:17:04.254Z,16.95
2023-02-03T16:21:25.701Z,18.38
2023-02-03T16:25:30.590Z,21.67
2023-02-03T16:29:54.881Z,20.75
2023-02-03T16:34:15.049Z,20.40
2023-02-03T16:38:37.108Z,23.05
2023-02-03T16:42:58.879Z,20.13
2023-02-03T16:47:21.474Z,21.55
2023-02-03T16:51:23.458Z,19.88
2023-02-03T16:55:25.482Z,22.73
2023-02-03T16:59:27.414Z,25.80
2023-02-03T17:03:29.967Z,24.60
2023-02-03T17:07:32.024Z,21.05
2023-02-03T17:11:34.291Z,21.55
2023-02-03T17:15:44.249Z,21.50
2023-02-03T17:19:46.512Z,23.63
2023-02-03T17:23:49.104Z,23.65
2023-02-03T17:27:51.297Z,23.73
2023-02-03T17:31:53.481Z,23.13
2023-02-03T17:36:16.835Z,27.33
2023-02-03T17:53:18.403Z,26.63
2023-02-03T17:57:20.535Z,25.10
2023-02-03T18:01:25.218Z,28.40
2023-02-03T18:05:29.072Z,35.28
2023-02-03T18:09:31.357Z,39.65
2023-02-03T18:13:37.951Z,39.88
2023-02-03T18:17:40.206Z,48.42
2023-02-03T18:21:43.412Z,40.47
2023-02-03T18:25:51.776Z,38.35
2023-02-03T18:29:53.887Z,41.55
2023-02-03T18:33:56.473Z,45.22
2023-02-03T18:37:58.601Z,40.28
2023-02-03T18:42:00.848Z,36.58
2023-02-03T18:46:11.197Z,36.20
2023-02-03T18:50:13.305Z,33.67
2023-02-03T18:54:15.468Z,34.95
2023-02-03T18:58:17.847Z,31.42
2023-02-03T19:02:21.629Z,31.05
2023-02-03T19:06:24.778Z,30.00
2023-02-03T19:10:26.678Z,29.27
2023-02-03T19:14:28.925Z,33.38
2023-02-03T19:18:32.152Z,30.75
2023-02-03T19:22:34.264Z,29.63
2023-02-03T19:26:36.309Z,30.70
2023-02-03T19:30:38.631Z,26.42
2023-02-03T19:34:40.938Z,26.00
2023-02-03T19:38:43.206Z,27.42
2023-02-03T19:42:45.273Z,26.77
2023-02-03T19:46:47.625Z,29.42
2023-02-03T19:50:50.065Z,28.52
2023-02-03T19:54:56.107Z,26.63
2023-02-03T19:58:59.000Z,25.45
2023-02-03T20:03:02.109Z,24.50
2023-02-03T20:07:04.388Z,25.92
2023-02-03T20:11:06.765Z,25.63
2023-02-03T20:15:08.544Z,25.30
2023-02-03T20:19:11.728Z,26.48
2023-02-03T20:23:13.404Z,25.25
2023-02-03T20:27:15.666Z,27.83
2023-02-03T20:31:17.558Z,28.15
2023-02-03T20:35:19.941Z,27.55
2023-02-03T20:39:22.298Z,24.80
2023-02-03T20:43:27.307Z,23.27
2023-02-03T20:47:34.083Z,25.23
2023-02-03T20:51:36.302Z,25.90
2023-02-03T20:55:38.491Z,25.65
2023-02-03T20:59:40.965Z,22.90
2023-02-03T21:04:01.813Z,28.13
2023-02-03T21:08:15.294Z,27.33
2023-02-03T21:12:17.354Z,27.73
2023-02-03T21:16:22.996Z,30.27
2023-02-03T21:20:29.273Z,29.02
2023-02-03T21:24:38.085Z,27.40
2023-02-03T21:28:40.258Z,28.55
2023-02-03T21:32:44.047Z,28.63
2023-02-03T21:36:46.649Z,26.00
2023-02-03T21:40:48.418Z,26.15
2023-02-03T21:44:50.609Z,27.63
2023-02-03T21:48:56.805Z,25.92
2023-02-03T21:53:23.407Z,27.38
2023-02-03T21:57:25.635Z,27.27
2023-02-03T22:01:34.369Z,26.02
2023-02-03T22:05:36.522Z,26.05
2023-02-03T22:09:38.355Z,25.25
2023-02-03T22:13:40.554Z,26.48
2023-02-03T22:17:42.552Z,25.20
2023-02-03T22:21:45.054Z,25.35
2023-02-03T22:25:47.818Z,23.80
2023-02-03T22:29:49.641Z,24.85
2023-02-03T22:33:51.817Z,23.05
2023-02-03T22:37:54.024Z,22.13
2023-02-03T22:41:56.183Z,21.00
2023-02-03T22:45:58.650Z,20.35
2023-02-03T22:50:00.749Z,20.65
2023-02-03T22:54:02.876Z,20.02
2023-02-03T22:58:06.102Z,19.30
2023-02-03T23:02:08.279Z,20.83
2023-02-03T23:06:11.554Z,20.90
2023-02-03T23:10:17.573Z,19.48
2023-02-03T23:14:19.638Z,19.33
2023-02-03T23:18:21.795Z,20.15
2023-02-03T23:22:23.919Z,19.58
2023-02-03T23:26:26.018Z,17.73
2023-02-03T23:30:28.213Z,18.83
2023-02-03T23:34:49.653Z,17.08
2023-02-03T23:38:51.760Z,17.00
2023-02-03T23:42:54.004Z,17.00
2023-02-03T23:46:56.074Z,17.45
2023-02-03T23:50:58.257Z,19.05
2023-02-03T23:55:00.423Z,17.95
2023-02-03T23:59:02.521Z,16.70
